sensor_id;sensor_type;location;lat;lon;timestamp;temperature;humidity
935;DHT22;454;53.254;10.400;2022-11-25T05:00:59;3.60;99.90
935;DHT22;454;53.254;10.400;2022-11-25T05:03:26;3.60;99.90
935;DHT22;454;53.254;10.400;2022-11-25T05:05:52;3.60;99.90
935;DHT22;454;53.254;10.400;2022-11-25T05:08:19;3.60;99.90
935;DHT22;454;53.254;10.400;2022-11-25T05:10:46;3.60;99.90
935;DHT22;454;53.254;10.400;2022-11-25T05:13:12;3.60;99.90
935;DHT22;454;53.254;10.400;2022-11-25T05:15:39;3.60;99.90
935;DHT22;454;53.254;10.400;2022-11-25T05:18:07;3.60;99.90
935;DHT22;454;53.254;10.400;2022-11-25T05:20:34;3.70;99.90
935;DHT22;454;53.254;10.400;2022-11-25T05:23:01;3.70;99.90
935;DHT22;454;53.254;10.400;2022-11-25T05:25:28;3.60;99.90
935;DHT22;454;53.254;10.400;2022-11-25T05:27:54;3.60;99.90
935;DHT22;454;53.254;10.400;2022-11-25T05:30:21;3.60;99.90
935;DHT22;454;53.254;10.400;2022-11-25T05:32:48;3.60;99.90
935;DHT22;454;53.254;10.400;2022-11-25T05:35:16;3.60;99.90
935;DHT22;454;53.254;10.400;2022-11-25T05:37:43;3.60;99.90
935;DHT22;454;53.254;10.400;2022-11-25T05:40:10;3.50;99.90
935;DHT22;454;53.254;10.400;2022-11-25T05:42:37;3.50;99.90
935;DHT22;454;53.254;10.400;2022-11-25T05:45:04;3.60;99.90
935;DHT22;454;53.254;10.400;2022-11-25T05:47:32;3.50;99.90
935;DHT22;454;53.254;10.400;2022-11-25T05:49:58;3.60;99.90
935;DHT22;454;53.254;10.400;2022-11-25T05:52:26;3.60;99.90
935;DHT22;454;53.254;10.400;2022-11-25T05:54:53;3.60;99.90
935;DHT22;454;53.254;10.400;2022-11-25T05:57:20;3.60;99.90
935;DHT22;454;53.254;10.400;2022-11-25T05:59:46;3.60;99.90
935;DHT22;454;53.254;10.400;2022-11-25T06:02:13;3.60;99.90
935;DHT22;454;53.254;10.400;2022-11-25T06:04:40;3.60;99.90
935;DHT22;454;53.254;10.400;2022-11-25T06:07:06;3.60;99.90
935;DHT22;454;53.254;10.400;2022-11-25T06:09:35;3.60;99.90
935;DHT22;454;53.254;10.400;2022-11-25T06:12:01;3.60;99.90
935;DHT22;454;53.254;10.400;2022-11-25T06:14:28;3.60;99.90
935;DHT22;454;53.254;10.400;2022-11-25T06:16:55;3.60;99.90
935;DHT22;454;53.254;10.400;2022-11-25T06:19:21;3.50;99.90
935;DHT22;454;53.254;10.400;2022-11-25T06:21:48;3.50;99.90
935;DHT22;454;53.254;10.400;2022-11-25T06:24:15;3.50;99.90
935;DHT22;454;53.254;10.400;2022-11-25T06:26:43;3.50;99.90
935;DHT22;454;53.254;10.400;2022-11-25T06:29:10;3.50;99.90
935;DHT22;454;53.254;10.400;2022-11-25T06:31:37;3.50;99.90
935;DHT22;454;53.254;10.400;2022-11-25T06:34:03;3.50;99.90
935;DHT22;454;53.254;10.400;2022-11-25T06:36:33;3.50;99.90
935;DHT22;454;53.254;10.400;2022-11-25T06:39:00;3.60;99.90
935;DHT22;454;53.254;10.400;2022-11-25T06:41:26;3.60;99.90
935;DHT22;454;53.254;10.400;2022-11-25T06:43:54;3.60;99.90
935;DHT22;454;53.254;10.400;2022-11-25T06:46:21;3.60;99.90
935;DHT22;454;53.254;10.400;2022-11-25T06:48:48;3.70;99.90
935;DHT22;454;53.254;10.400;2022-11-25T06:51:15;3.70;99.90
935;DHT22;454;53.254;10.400;2022-11-25T06:53:42;3.70;99.90
935;DHT22;454;53.254;10.400;2022-11-25T06:56:11;3.70;99.90
935;DHT22;454;53.254;10.400;2022-11-25T06:58:39;3.70;99.90
935;DHT22;454;53.254;10.400;2022-11-25T07:01:13;3.80;99.90
935;DHT22;454;53.254;10.400;2022-11-25T07:03:41;3.80;99.90
935;DHT22;454;53.254;10.400;2022-11-25T07:06:08;3.80;99.90
935;DHT22;454;53.254;10.400;2022-11-25T07:08:39;3.80;99.90
935;DHT22;454;53.254;10.400;2022-11-25T07:11:08;3.80;99.90
935;DHT22;454;53.254;10.400;2022-11-25T07:13:39;3.80;99.90
935;DHT22;454;53.254;10.400;2022-11-25T07:16:07;3.80;99.90
935;DHT22;454;53.254;10.400;2022-11-25T07:18:37;3.80;99.90
935;DHT22;454;53.254;10.400;2022-11-25T07:21:11;3.90;99.90
935;DHT22;454;53.254;10.400;2022-11-25T07:23:39;3.90;99.90
935;DHT22;454;53.254;10.400;2022-11-25T07:26:11;3.90;99.90
935;DHT22;454;53.254;10.400;2022-11-25T07:28:39;4.00;99.90
935;DHT22;454;53.254;10.400;2022-11-25T07:31:09;4.10;99.90
935;DHT22;454;53.254;10.400;2022-11-25T07:33:39;4.10;99.90
935;DHT22;454;53.254;10.400;2022-11-25T07:36:09;4.20;99.90
935;DHT22;454;53.254;10.400;2022-11-25T07:38:40;4.30;99.90
935;DHT22;454;53.254;10.400;2022-11-25T07:41:09;4.30;99.90
935;DHT22;454;53.254;10.400;2022-11-25T07:43:38;4.30;99.90
935;DHT22;454;53.254;10.400;2022-11-25T07:46:10;4.40;99.90
935;DHT22;454;53.254;10.400;2022-11-25T07:48:40;4.40;99.90
935;DHT22;454;53.254;10.400;2022-11-25T07:51:13;4.40;99.90
935;DHT22;454;53.254;10.400;2022-11-25T07:53:41;4.50;99.90
935;DHT22;454;53.254;10.400;2022-11-25T07:56:11;4.50;99.90
935;DHT22;454;53.254;10.400;2022-11-25T07:58:39;4.50;99.90
935;DHT22;454;53.254;10.400;2022-11-25T08:01:19;4.50;99.90
935;DHT22;454;53.254;10.400;2022-11-25T08:03:49;4.50;99.90
935;DHT22;454;53.254;10.400;2022-11-25T08:06:20;4.50;99.90
935;DHT22;454;53.254;10.400;2022-11-25T08:08:48;4.50;99.90
935;DHT22;454;53.254;10.400;2022-11-25T08:11:19;4.60;99.90
935;DHT22;454;53.254;10.400;2022-11-25T08:13:49;4.60;99.90
935;DHT22;454;53.254;10.400;2022-11-25T08:16:20;4.60;99.90
935;DHT22;454;53.254;10.400;2022-11-25T08:18:49;4.60;99.90
935;DHT22;454;53.254;10.400;2022-11-25T08:21:26;4.70;99.90
935;DHT22;454;53.254;10.400;2022-11-25T08:23:55;4.70;99.90
935;DHT22;454;53.254;10.400;2022-11-25T08:26:25;4.70;99.90
935;DHT22;454;53.254;10.400;2022-11-25T08:28:55;4.80;99.90
935;DHT22;454;53.254;10.400;2022-11-25T08:31:26;4.80;99.90
935;DHT22;454;53.254;10.400;2022-11-25T08:33:55;4.90;99.90
935;DHT22;454;53.254;10.400;2022-11-25T08:36:30;5.00;99.90
935;DHT22;454;53.254;10.400;2022-11-25T08:39:00;5.00;99.90
935;DHT22;454;53.254;10.400;2022-11-25T08:41:31;5.00;99.90
935;DHT22;454;53.254;10.400;2022-11-25T08:44:00;5.00;99.90
935;DHT22;454;53.254;10.400;2022-11-25T08:46:32;5.10;99.90
935;DHT22;454;53.254;10.400;2022-11-25T08:49:12;5.10;99.90
935;DHT22;454;53.254;10.400;2022-11-25T08:51:44;5.20;99.90
935;DHT22;454;53.254;10.400;2022-11-25T08:54:13;5.20;99.90
935;DHT22;454;53.254;10.400;2022-11-25T08:56:44;5.20;99.90
935;DHT22;454;53.254;10.400;2022-11-25T08:59:11;5.20;99.90
935;DHT22;454;53.254;10.400;2022-11-25T09:01:43;5.20;99.90
935;DHT22;454;53.254;10.400;2022-11-25T09:04:12;5.30;99.90
935;DHT22;454;53.254;10.400;2022-11-25T09:06:46;5.30;99.90
935;DHT22;454;53.254;10.400;2022-11-25T09:09:15;5.30;99.90
935;DHT22;454;53.254;10.400;2022-11-25T09:11:42;5.30;99.90
935;DHT22;454;53.254;10.400;2022-11-25T09:14:17;5.30;99.90
935;DHT22;454;53.254;10.400;2022-11-25T09:16:46;5.30;99.90
935;DHT22;454;53.254;10.400;2022-11-25T09:19:19;5.30;99.90
935;DHT22;454;53.254;10.400;2022-11-25T09:21:48;5.40;99.90
935;DHT22;454;53.254;10.400;2022-11-25T09:24:17;5.40;99.90
935;DHT22;454;53.254;10.400;2022-11-25T09:26:49;5.40;99.90
935;DHT22;454;53.254;10.400;2022-11-25T09:29:17;5.40;99.90
935;DHT22;454;53.254;10.400;2022-11-25T09:31:46;5.50;99.90
935;DHT22;454;53.254;10.400;2022-11-25T09:34:13;5.50;99.90
935;DHT22;454;53.254;10.400;2022-11-25T09:36:44;5.60;99.90
935;DHT22;454;53.254;10.400;2022-11-25T09:39:15;5.70;99.90
935;DHT22;454;53.254;10.400;2022-11-25T09:41:54;5.70;99.90
935;DHT22;454;53.254;10.400;2022-11-25T09:44:53;5.70;99.90
935;DHT22;454;53.254;10.400;2022-11-25T09:47:51;5.70;99.90
935;DHT22;454;53.254;10.400;2022-11-25T09:50:37;5.80;99.90
935;DHT22;454;53.254;10.400;2022-11-25T09:53:14;5.80;99.90
935;DHT22;454;53.254;10.400;2022-11-25T09:55:47;5.80;99.90
935;DHT22;454;53.254;10.400;2022-11-25T09:58:23;5.70;99.90
935;DHT22;454;53.254;10.400;2022-11-25T10:00:53;5.80;99.90
935;DHT22;454;53.254;10.400;2022-11-25T10:03:29;5.80;99.90
935;DHT22;454;53.254;10.400;2022-11-25T10:06:02;5.80;99.90
935;DHT22;454;53.254;10.400;2022-11-25T10:08:38;5.70;99.90
935;DHT22;454;53.254;10.400;2022-11-25T10:11:17;5.80;99.90
935;DHT22;454;53.254;10.400;2022-11-25T10:13:53;5.80;99.90
935;DHT22;454;53.254;10.400;2022-11-25T10:16:31;5.80;99.90
935;DHT22;454;53.254;10.400;2022-11-25T10:19:01;5.80;99.90
935;DHT22;454;53.254;10.400;2022-11-25T10:21:35;5.90;99.90
935;DHT22;454;53.254;10.400;2022-11-25T10:24:07;5.90;99.90
935;DHT22;454;53.254;10.400;2022-11-25T10:26:41;6.00;99.90
935;DHT22;454;53.254;10.400;2022-11-25T10:29:24;6.10;99.90
935;DHT22;454;53.254;10.400;2022-11-25T10:32:07;6.10;99.90
935;DHT22;454;53.254;10.400;2022-11-25T10:34:41;6.10;99.90
935;DHT22;454;53.254;10.400;2022-11-25T10:37:29;6.10;99.90
935;DHT22;454;53.254;10.400;2022-11-25T10:40:02;6.10;99.90
935;DHT22;454;53.254;10.400;2022-11-25T10:42:34;6.10;99.90
935;DHT22;454;53.254;10.400;2022-11-25T10:45:02;6.10;99.90
935;DHT22;454;53.254;10.400;2022-11-25T10:47:35;6.10;99.90
935;DHT22;454;53.254;10.400;2022-11-25T10:50:12;6.20;99.90
935;DHT22;454;53.254;10.400;2022-11-25T10:52:47;6.20;99.90
935;DHT22;454;53.254;10.400;2022-11-25T10:55:19;6.20;99.90
935;DHT22;454;53.254;10.400;2022-11-25T10:57:51;6.30;99.90
935;DHT22;454;53.254;10.400;2022-11-25T11:00:28;6.30;99.90
935;DHT22;454;53.254;10.400;2022-11-25T11:02:56;6.30;99.90
935;DHT22;454;53.254;10.400;2022-11-25T11:05:24;6.30;99.90
935;DHT22;454;53.254;10.400;2022-11-25T11:08:18;6.40;99.90
935;DHT22;454;53.254;10.400;2022-11-25T11:11:08;6.40;99.90
935;DHT22;454;53.254;10.400;2022-11-25T11:13:39;6.40;99.90
935;DHT22;454;53.254;10.400;2022-11-25T11:16:22;6.40;99.90
935;DHT22;454;53.254;10.400;2022-11-25T11:18:51;6.40;99.90
935;DHT22;454;53.254;10.400;2022-11-25T11:21:24;6.40;99.90
935;DHT22;454;53.254;10.400;2022-11-25T11:23:54;6.40;99.90
935;DHT22;454;53.254;10.400;2022-11-25T11:26:25;6.40;99.90
935;DHT22;454;53.254;10.400;2022-11-25T11:29:00;6.40;99.90
935;DHT22;454;53.254;10.400;2022-11-25T11:31:32;6.40;99.90
935;DHT22;454;53.254;10.400;2022-11-25T11:34:09;6.40;99.90
935;DHT22;454;53.254;10.400;2022-11-25T11:36:50;6.40;99.90
935;DHT22;454;53.254;10.400;2022-11-25T11:39:33;6.40;99.90
935;DHT22;454;53.254;10.400;2022-11-25T11:42:09;6.40;99.90
935;DHT22;454;53.254;10.400;2022-11-25T11:44:50;6.40;99.90
935;DHT22;454;53.254;10.400;2022-11-25T11:47:24;6.50;99.90
935;DHT22;454;53.254;10.400;2022-11-25T11:52:51;6.60;99.90
935;DHT22;454;53.254;10.400;2022-11-25T11:55:34;6.60;99.90
935;DHT22;454;53.254;10.400;2022-11-25T11:58:12;6.60;99.90
935;DHT22;454;53.254;10.400;2022-11-25T12:00:47;6.60;99.90
935;DHT22;454;53.254;10.400;2022-11-25T12:03:19;6.70;99.90
935;DHT22;454;53.254;10.400;2022-11-25T12:05:47;6.70;99.90
935;DHT22;454;53.254;10.400;2022-11-25T12:08:22;6.70;99.90
935;DHT22;454;53.254;10.400;2022-11-25T12:10:55;6.70;99.90
935;DHT22;454;53.254;10.400;2022-11-25T12:13:28;6.70;99.90
935;DHT22;454;53.254;10.400;2022-11-25T12:16:03;6.70;99.90
935;DHT22;454;53.254;10.400;2022-11-25T12:18:39;6.80;99.90
935;DHT22;454;53.254;10.400;2022-11-25T12:21:16;6.80;99.90
935;DHT22;454;53.254;10.400;2022-11-25T12:23:54;6.80;99.90
935;DHT22;454;53.254;10.400;2022-11-25T12:26:28;6.80;99.90
935;DHT22;454;53.254;10.400;2022-11-25T12:29:00;6.90;99.90
935;DHT22;454;53.254;10.400;2022-11-25T12:31:33;6.90;99.90
935;DHT22;454;53.254;10.400;2022-11-25T12:34:06;6.90;99.90
935;DHT22;454;53.254;10.400;2022-11-25T12:36:37;6.90;99.90
935;DHT22;454;53.254;10.400;2022-11-25T12:39:11;6.80;99.90
935;DHT22;454;53.254;10.400;2022-11-25T12:41:44;6.90;99.90
935;DHT22;454;53.254;10.400;2022-11-25T12:44:19;6.90;99.90
935;DHT22;454;53.254;10.400;2022-11-25T12:46:48;6.90;99.90
935;DHT22;454;53.254;10.400;2022-11-25T12:49:17;6.90;99.90
935;DHT22;454;53.254;10.400;2022-11-25T12:52:07;6.90;99.90
935;DHT22;454;53.254;10.400;2022-11-25T12:58:18;6.90;99.90
935;DHT22;454;53.254;10.400;2022-11-25T13:01:23;7.00;99.90
935;DHT22;454;53.254;10.400;2022-11-25T13:04:08;7.00;99.90
935;DHT22;454;53.254;10.400;2022-11-25T13:06:56;7.00;99.90
935;DHT22;454;53.254;10.400;2022-11-25T13:09:37;7.00;99.90
935;DHT22;454;53.254;10.400;2022-11-25T13:12:16;7.10;99.90
935;DHT22;454;53.254;10.400;2022-11-25T13:15:11;7.10;99.90
935;DHT22;454;53.254;10.400;2022-11-25T13:17:47;7.10;99.90
935;DHT22;454;53.254;10.400;2022-11-25T13:20:37;7.10;99.90
935;DHT22;454;53.254;10.400;2022-11-25T13:23:21;7.10;99.90
935;DHT22;454;53.254;10.400;2022-11-25T13:25:50;7.10;99.90
935;DHT22;454;53.254;10.400;2022-11-25T13:28:29;7.00;99.90
935;DHT22;454;53.254;10.400;2022-11-25T13:31:18;7.10;99.90
935;DHT22;454;53.254;10.400;2022-11-25T13:34:20;7.00;99.90
935;DHT22;454;53.254;10.400;2022-11-25T13:36:50;7.00;99.90
935;DHT22;454;53.254;10.400;2022-11-25T13:39:18;7.10;99.90
935;DHT22;454;53.254;10.400;2022-11-25T13:41:59;7.10;99.90
935;DHT22;454;53.254;10.400;2022-11-25T13:44:29;7.10;99.90
935;DHT22;454;53.254;10.400;2022-11-25T13:46:58;7.10;99.90
935;DHT22;454;53.254;10.400;2022-11-25T13:49:31;7.20;99.90
935;DHT22;454;53.254;10.400;2022-11-25T13:52:01;7.10;99.90
935;DHT22;454;53.254;10.400;2022-11-25T13:54:34;7.20;99.90
935;DHT22;454;53.254;10.400;2022-11-25T13:57:22;7.20;99.90
935;DHT22;454;53.254;10.400;2022-11-25T13:59:53;7.20;99.90
935;DHT22;454;53.254;10.400;2022-11-25T14:02:36;7.20;99.90
935;DHT22;454;53.254;10.400;2022-11-25T14:08:25;7.30;99.90
935;DHT22;454;53.254;10.400;2022-11-25T14:11:04;7.30;99.90
935;DHT22;454;53.254;10.400;2022-11-25T14:13:47;7.30;99.90
935;DHT22;454;53.254;10.400;2022-11-25T14:16:28;7.40;99.90
935;DHT22;454;53.254;10.400;2022-11-25T14:19:15;7.40;99.90
935;DHT22;454;53.254;10.400;2022-11-25T14:22:07;7.40;99.90
935;DHT22;454;53.254;10.400;2022-11-25T14:24:41;7.40;99.90
935;DHT22;454;53.254;10.400;2022-11-25T14:27:13;7.50;99.90
935;DHT22;454;53.254;10.400;2022-11-25T14:29:44;7.50;99.90
935;DHT22;454;53.254;10.400;2022-11-25T14:32:14;7.50;99.90
935;DHT22;454;53.254;10.400;2022-11-25T14:34:47;7.50;99.90
935;DHT22;454;53.254;10.400;2022-11-25T14:37:20;7.50;99.90
935;DHT22;454;53.254;10.400;2022-11-25T14:39:53;7.60;99.90
935;DHT22;454;53.254;10.400;2022-11-25T14:42:24;7.50;99.90
935;DHT22;454;53.254;10.400;2022-11-25T14:44:53;7.60;99.90
935;DHT22;454;53.254;10.400;2022-11-25T14:47:24;7.60;99.90
935;DHT22;454;53.254;10.400;2022-11-25T14:49:52;7.60;99.90
935;DHT22;454;53.254;10.400;2022-11-25T14:52:21;7.70;99.90
935;DHT22;454;53.254;10.400;2022-11-25T14:54:52;7.70;99.90
935;DHT22;454;53.254;10.400;2022-11-25T14:57:21;7.70;99.90
935;DHT22;454;53.254;10.400;2022-11-25T14:59:49;7.70;99.90
935;DHT22;454;53.254;10.400;2022-11-25T15:02:24;7.70;99.90
935;DHT22;454;53.254;10.400;2022-11-25T15:04:51;7.70;99.90
935;DHT22;454;53.254;10.400;2022-11-25T15:07:20;7.70;99.90
935;DHT22;454;53.254;10.400;2022-11-25T15:09:47;7.60;99.90
935;DHT22;454;53.254;10.400;2022-11-25T15:12:17;7.60;99.90
935;DHT22;454;53.254;10.400;2022-11-25T15:14:49;7.60;99.90
935;DHT22;454;53.254;10.400;2022-11-25T15:17:23;7.60;99.90
935;DHT22;454;53.254;10.400;2022-11-25T15:19:52;7.60;99.90
935;DHT22;454;53.254;10.400;2022-11-25T15:22:20;7.60;99.90
935;DHT22;454;53.254;10.400;2022-11-25T15:24:48;7.60;99.90
935;DHT22;454;53.254;10.400;2022-11-25T15:27:18;7.60;99.90
935;DHT22;454;53.254;10.400;2022-11-25T15:29:46;7.60;99.90
935;DHT22;454;53.254;10.400;2022-11-25T15:32:15;7.60;99.90
935;DHT22;454;53.254;10.400;2022-11-25T15:34:44;7.60;99.90
935;DHT22;454;53.254;10.400;2022-11-25T15:37:12;7.60;99.90
935;DHT22;454;53.254;10.400;2022-11-25T15:39:38;7.60;99.90
935;DHT22;454;53.254;10.400;2022-11-25T15:42:06;7.70;99.90
935;DHT22;454;53.254;10.400;2022-11-25T15:44:47;7.60;99.90
935;DHT22;454;53.254;10.400;2022-11-25T15:47:20;7.60;99.90
935;DHT22;454;53.254;10.400;2022-11-25T15:49:50;7.60;99.90
935;DHT22;454;53.254;10.400;2022-11-25T15:52:21;7.60;99.90
935;DHT22;454;53.254;10.400;2022-11-25T15:54:49;7.60;99.90
935;DHT22;454;53.254;10.400;2022-11-25T15:57:19;7.60;99.90
935;DHT22;454;53.254;10.400;2022-11-25T16:00:00;7.60;99.90
935;DHT22;454;53.254;10.400;2022-11-25T16:02:32;7.60;99.90
935;DHT22;454;53.254;10.400;2022-11-25T17:45:31;7.70;99.90
935;DHT22;454;53.254;10.400;2022-11-25T17:47:57;7.70;99.90
935;DHT22;454;53.254;10.400;2022-11-25T17:50:25;7.80;99.90
935;DHT22;454;53.254;10.400;2022-11-25T17:52:51;7.80;99.90
935;DHT22;454;53.254;10.400;2022-11-25T18:08:33;7.80;99.90
935;DHT22;454;53.254;10.400;2022-11-25T18:11:00;8.00;99.90
935;DHT22;454;53.254;10.400;2022-11-25T18:13:36;8.00;99.90
935;DHT22;454;53.254;10.400;2022-11-25T18:16:05;8.00;99.90
935;DHT22;454;53.254;10.400;2022-11-25T18:18:32;8.00;99.90
935;DHT22;454;53.254;10.400;2022-11-25T18:20:59;8.00;99.90
935;DHT22;454;53.254;10.400;2022-11-25T18:23:26;8.00;99.90
935;DHT22;454;53.254;10.400;2022-11-25T18:25:56;8.00;99.90
935;DHT22;454;53.254;10.400;2022-11-25T18:28:24;8.00;99.90
935;DHT22;454;53.254;10.400;2022-11-25T18:31:01;8.00;99.90
935;DHT22;454;53.254;10.400;2022-11-25T18:33:28;8.00;99.90
935;DHT22;454;53.254;10.400;2022-11-25T18:35:56;8.00;99.90
935;DHT22;454;53.254;10.400;2022-11-25T18:38:22;8.00;99.90
935;DHT22;454;53.254;10.400;2022-11-25T18:40:49;8.00;99.90
935;DHT22;454;53.254;10.400;2022-11-25T18:43:19;8.00;99.90
935;DHT22;454;53.254;10.400;2022-11-25T18:45:48;8.00;99.90
935;DHT22;454;53.254;10.400;2022-11-25T18:48:16;8.00;99.90
935;DHT22;454;53.254;10.400;2022-11-25T18:50:44;8.00;99.90
935;DHT22;454;53.254;10.400;2022-11-25T18:53:12;8.00;99.90
935;DHT22;454;53.254;10.400;2022-11-25T18:55:39;7.90;99.90
935;DHT22;454;53.254;10.400;2022-11-25T18:58:11;7.90;99.90
935;DHT22;454;53.254;10.400;2022-11-25T19:00:41;7.90;99.90
935;DHT22;454;53.254;10.400;2022-11-25T19:03:15;7.90;99.90
935;DHT22;454;53.254;10.400;2022-11-25T19:05:41;7.90;99.90
935;DHT22;454;53.254;10.400;2022-11-25T19:08:08;7.90;99.90
935;DHT22;454;53.254;10.400;2022-11-25T19:10:36;7.90;99.90
935;DHT22;454;53.254;10.400;2022-11-25T19:13:06;7.90;99.90
935;DHT22;454;53.254;10.400;2022-11-25T19:15:33;7.90;99.90
935;DHT22;454;53.254;10.400;2022-11-25T19:18:04;7.80;99.90
935;DHT22;454;53.254;10.400;2022-11-25T19:20:32;7.80;99.90
935;DHT22;454;53.254;10.400;2022-11-25T19:23:00;7.90;99.90
935;DHT22;454;53.254;10.400;2022-11-25T19:25:28;7.80;99.90
935;DHT22;454;53.254;10.400;2022-11-25T19:27:57;7.80;99.90
935;DHT22;454;53.254;10.400;2022-11-25T19:30:26;7.80;99.90
935;DHT22;454;53.254;10.400;2022-11-25T19:32:55;7.80;99.90
935;DHT22;454;53.254;10.400;2022-11-25T19:35:25;7.90;99.90
935;DHT22;454;53.254;10.400;2022-11-25T19:37:53;7.80;99.90
935;DHT22;454;53.254;10.400;2022-11-25T19:40:20;7.80;99.90
935;DHT22;454;53.254;10.400;2022-11-25T19:42:49;7.80;99.90
935;DHT22;454;53.254;10.400;2022-11-25T19:45:17;7.80;99.90
935;DHT22;454;53.254;10.400;2022-11-25T19:47:47;7.80;99.90
935;DHT22;454;53.254;10.400;2022-11-25T19:50:18;7.90;99.90
935;DHT22;454;53.254;10.400;2022-11-25T19:55:24;7.80;99.90
935;DHT22;454;53.254;10.400;2022-11-25T19:57:51;7.90;99.90
935;DHT22;454;53.254;10.400;2022-11-25T20:00:20;7.90;99.90
935;DHT22;454;53.254;10.400;2022-11-25T20:02:48;7.90;99.90
935;DHT22;454;53.254;10.400;2022-11-25T20:05:17;7.90;99.90
935;DHT22;454;53.254;10.400;2022-11-25T20:07:45;7.90;99.90
935;DHT22;454;53.254;10.400;2022-11-25T20:10:17;8.00;99.90
935;DHT22;454;53.254;10.400;2022-11-25T20:12:46;7.90;99.90
935;DHT22;454;53.254;10.400;2022-11-25T20:15:13;8.00;99.90
935;DHT22;454;53.254;10.400;2022-11-25T20:17:43;8.00;99.90
935;DHT22;454;53.254;10.400;2022-11-25T20:20:14;8.00;99.90
935;DHT22;454;53.254;10.400;2022-11-25T20:22:47;8.00;99.90
935;DHT22;454;53.254;10.400;2022-11-25T20:25:16;8.00;99.90
935;DHT22;454;53.254;10.400;2022-11-25T20:27:42;8.00;99.90
935;DHT22;454;53.254;10.400;2022-11-25T20:30:15;8.00;99.90
935;DHT22;454;53.254;10.400;2022-11-25T20:32:42;8.00;99.90
935;DHT22;454;53.254;10.400;2022-11-25T20:35:09;8.00;99.90
935;DHT22;454;53.254;10.400;2022-11-25T20:37:37;8.10;99.90
935;DHT22;454;53.254;10.400;2022-11-25T20:40:17;8.10;99.90
935;DHT22;454;53.254;10.400;2022-11-25T20:42:44;8.10;99.90
935;DHT22;454;53.254;10.400;2022-11-25T20:45:13;8.10;99.90
935;DHT22;454;53.254;10.400;2022-11-25T20:47:42;8.10;99.90
935;DHT22;454;53.254;10.400;2022-11-25T20:50:10;8.10;99.90
935;DHT22;454;53.254;10.400;2022-11-25T20:52:37;8.10;99.90
935;DHT22;454;53.254;10.400;2022-11-25T20:55:16;8.10;99.90
935;DHT22;454;53.254;10.400;2022-11-25T20:57:43;8.10;99.90
935;DHT22;454;53.254;10.400;2022-11-25T21:00:15;8.10;99.90
935;DHT22;454;53.254;10.400;2022-11-25T21:02:44;8.10;99.90
935;DHT22;454;53.254;10.400;2022-11-25T21:05:11;8.10;99.90
935;DHT22;454;53.254;10.400;2022-11-25T21:07:38;8.10;99.90
935;DHT22;454;53.254;10.400;2022-11-25T21:10:20;8.20;99.90
935;DHT22;454;53.254;10.400;2022-11-25T21:12:47;8.20;99.90
935;DHT22;454;53.254;10.400;2022-11-25T21:15:16;8.20;99.90
935;DHT22;454;53.254;10.400;2022-11-25T21:17:45;8.20;99.90
935;DHT22;454;53.254;10.400;2022-11-25T21:20:12;8.20;99.90
935;DHT22;454;53.254;10.400;2022-11-25T21:22:42;8.20;99.90
935;DHT22;454;53.254;10.400;2022-11-25T21:25:11;8.20;99.90
935;DHT22;454;53.254;10.400;2022-11-25T21:27:39;8.20;99.90
935;DHT22;454;53.254;10.400;2022-11-25T21:30:09;8.20;99.90
935;DHT22;454;53.254;10.400;2022-11-25T21:32:42;8.20;99.90
935;DHT22;454;53.254;10.400;2022-11-25T21:35:10;8.20;99.90
935;DHT22;454;53.254;10.400;2022-11-25T21:37:38;8.20;99.90
935;DHT22;454;53.254;10.400;2022-11-25T21:40:06;8.30;99.90
935;DHT22;454;53.254;10.400;2022-11-25T21:42:33;8.20;99.90
935;DHT22;454;53.254;10.400;2022-11-25T21:45:00;8.30;99.90
935;DHT22;454;53.254;10.400;2022-11-25T21:47:28;8.30;99.90
935;DHT22;454;53.254;10.400;2022-11-25T21:49:55;8.20;99.90
935;DHT22;454;53.254;10.400;2022-11-25T21:52:24;8.30;99.90
935;DHT22;454;53.254;10.400;2022-11-25T21:54:51;8.30;99.90
935;DHT22;454;53.254;10.400;2022-11-25T21:57:21;8.30;99.90
935;DHT22;454;53.254;10.400;2022-11-25T21:59:51;8.30;99.90
